sensor_id;sensor_type;location;lat;lon;timestamp;temperature;humidity
46356;DHT22;32066;49.474;11.106;2022-07-03T00:02:06;20.30;63.50
46356;DHT22;32066;49.474;11.106;2022-07-03T00:04:32;20.30;63.00
46356;DHT22;32066;49.474;11.106;2022-07-03T00:06:59;20.30;63.10
46356;DHT22;32066;49.474;11.106;2022-07-03T00:09:26;20.20;63.40
46356;DHT22;32066;49.474;11.106;2022-07-03T00:11:53;20.20;63.20
46356;DHT22;32066;49.474;11.106;2022-07-03T00:14:20;20.20;63.50
46356;DHT22;32066;49.474;11.106;2022-07-03T00:16:49;20.10;63.10
46356;DHT22;32066;49.474;11.106;2022-07-03T00:19:15;20.10;63.50
46356;DHT22;32066;49.474;11.106;2022-07-03T00:21:45;20.10;63.20
46356;DHT22;32066;49.474;11.106;2022-07-03T00:24:20;20.00;63.60
46356;DHT22;32066;49.474;11.106;2022-07-03T00:26:50;20.00;64.20
46356;DHT22;32066;49.474;11.106;2022-07-03T00:29:20;19.90;63.90
46356;DHT22;32066;49.474;11.106;2022-07-03T00:31:49;19.90;64.10
46356;DHT22;32066;49.474;11.106;2022-07-03T00:34:17;19.80;64.20
46356;DHT22;32066;49.474;11.106;2022-07-03T00:36:46;19.70;64.60
46356;DHT22;32066;49.474;11.106;2022-07-03T00:39:14;19.70;64.80
46356;DHT22;32066;49.474;11.106;2022-07-03T00:41:44;19.70;64.80
46356;DHT22;32066;49.474;11.106;2022-07-03T00:44:11;19.70;65.60
46356;DHT22;32066;49.474;11.106;2022-07-03T00:46:40;19.60;64.80
46356;DHT22;32066;49.474;11.106;2022-07-03T00:49:10;19.50;65.60
46356;DHT22;32066;49.474;11.106;2022-07-03T00:51:39;19.50;66.10
46356;DHT22;32066;49.474;11.106;2022-07-03T00:54:08;19.40;66.20
46356;DHT22;32066;49.474;11.106;2022-07-03T00:56:38;19.40;66.70
46356;DHT22;32066;49.474;11.106;2022-07-03T00:59:06;19.40;66.10
46356;DHT22;32066;49.474;11.106;2022-07-03T01:01:35;19.30;66.10
46356;DHT22;32066;49.474;11.106;2022-07-03T01:04:19;19.30;66.70
46356;DHT22;32066;49.474;11.106;2022-07-03T01:06:52;19.30;66.30
46356;DHT22;32066;49.474;11.106;2022-07-03T01:09:26;19.30;66.70
46356;DHT22;32066;49.474;11.106;2022-07-03T01:12:03;19.30;67.10
46356;DHT22;32066;49.474;11.106;2022-07-03T01:14:32;19.10;67.30
46356;DHT22;32066;49.474;11.106;2022-07-03T01:17:03;18.80;67.40
46356;DHT22;32066;49.474;11.106;2022-07-03T01:19:36;18.50;68.30
46356;DHT22;32066;49.474;11.106;2022-07-03T01:22:26;18.50;68.80
46356;DHT22;32066;49.474;11.106;2022-07-03T01:25:15;18.50;69.00
46356;DHT22;32066;49.474;11.106;2022-07-03T01:27:56;18.40;69.00
46356;DHT22;32066;49.474;11.106;2022-07-03T01:30:24;18.40;69.20
46356;DHT22;32066;49.474;11.106;2022-07-03T01:32:57;18.40;68.90
46356;DHT22;32066;49.474;11.106;2022-07-03T01:35:28;18.30;69.20
46356;DHT22;32066;49.474;11.106;2022-07-03T01:38:02;18.20;69.50
46356;DHT22;32066;49.474;11.106;2022-07-03T01:40:32;18.20;69.70
46356;DHT22;32066;49.474;11.106;2022-07-03T01:43:02;18.10;69.70
46356;DHT22;32066;49.474;11.106;2022-07-03T01:45:32;18.20;70.10
46356;DHT22;32066;49.474;11.106;2022-07-03T01:48:01;18.00;70.10
46356;DHT22;32066;49.474;11.106;2022-07-03T01:50:29;18.00;70.40
46356;DHT22;32066;49.474;11.106;2022-07-03T01:53:00;17.90;70.70
46356;DHT22;32066;49.474;11.106;2022-07-03T01:55:30;17.90;70.70
46356;DHT22;32066;49.474;11.106;2022-07-03T01:57:58;17.90;70.70
46356;DHT22;32066;49.474;11.106;2022-07-03T02:00:27;17.80;70.80
46356;DHT22;32066;49.474;11.106;2022-07-03T02:02:58;17.80;70.80
46356;DHT22;32066;49.474;11.106;2022-07-03T02:05:36;17.90;70.80
46356;DHT22;32066;49.474;11.106;2022-07-03T02:08:11;17.90;70.80
46356;DHT22;32066;49.474;11.106;2022-07-03T02:10:40;17.90;70.80
46356;DHT22;32066;49.474;11.106;2022-07-03T02:13:16;17.80;70.80
46356;DHT22;32066;49.474;11.106;2022-07-03T02:15:45;17.50;71.70
46356;DHT22;32066;49.474;11.106;2022-07-03T02:18:25;17.60;71.90
46356;DHT22;32066;49.474;11.106;2022-07-03T02:21:02;17.70;71.40
46356;DHT22;32066;49.474;11.106;2022-07-03T02:23:31;17.70;71.20
46356;DHT22;32066;49.474;11.106;2022-07-03T02:26:01;17.70;71.40
46356;DHT22;32066;49.474;11.106;2022-07-03T02:28:34;17.70;71.50
46356;DHT22;32066;49.474;11.106;2022-07-03T02:31:06;17.70;71.40
46356;DHT22;32066;49.474;11.106;2022-07-03T02:33:37;17.90;71.50
46356;DHT22;32066;49.474;11.106;2022-07-03T02:36:05;17.90;70.90
46356;DHT22;32066;49.474;11.106;2022-07-03T02:38:36;18.00;70.70
46356;DHT22;32066;49.474;11.106;2022-07-03T02:41:08;18.00;70.70
46356;DHT22;32066;49.474;11.106;2022-07-03T02:43:38;18.00;70.60
46356;DHT22;32066;49.474;11.106;2022-07-03T02:46:14;18.00;70.80
46356;DHT22;32066;49.474;11.106;2022-07-03T02:49:06;17.70;70.90
46356;DHT22;32066;49.474;11.106;2022-07-03T02:51:37;17.60;71.30
46356;DHT22;32066;49.474;11.106;2022-07-03T02:54:11;17.50;71.90
46356;DHT22;32066;49.474;11.106;2022-07-03T02:56:46;17.50;72.40
46356;DHT22;32066;49.474;11.106;2022-07-03T02:59:26;17.40;72.40
46356;DHT22;32066;49.474;11.106;2022-07-03T03:02:00;17.50;72.40
46356;DHT22;32066;49.474;11.106;2022-07-03T03:04:31;17.40;72.20
46356;DHT22;32066;49.474;11.106;2022-07-03T03:07:03;17.40;72.70
46356;DHT22;32066;49.474;11.106;2022-07-03T03:09:39;17.20;73.00
46356;DHT22;32066;49.474;11.106;2022-07-03T03:12:09;17.30;73.10
46356;DHT22;32066;49.474;11.106;2022-07-03T03:14:39;17.30;73.00
46356;DHT22;32066;49.474;11.106;2022-07-03T03:17:09;17.40;72.70
46356;DHT22;32066;49.474;11.106;2022-07-03T03:19:40;17.50;72.60
46356;DHT22;32066;49.474;11.106;2022-07-03T03:22:16;17.60;72.30
46356;DHT22;32066;49.474;11.106;2022-07-03T03:24:47;17.70;72.10
46356;DHT22;32066;49.474;11.106;2022-07-03T03:27:14;17.60;71.90
46356;DHT22;32066;49.474;11.106;2022-07-03T03:29:41;17.60;71.80
46356;DHT22;32066;49.474;11.106;2022-07-03T03:32:10;17.50;72.00
46356;DHT22;32066;49.474;11.106;2022-07-03T03:34:38;17.70;72.10
46356;DHT22;32066;49.474;11.106;2022-07-03T03:37:07;17.70;71.90
46356;DHT22;32066;49.474;11.106;2022-07-03T03:39:34;17.80;71.90
46356;DHT22;32066;49.474;11.106;2022-07-03T03:42:01;17.80;71.40
46356;DHT22;32066;49.474;11.106;2022-07-03T03:44:28;17.80;71.40
46356;DHT22;32066;49.474;11.106;2022-07-03T03:46:55;17.70;71.50
46356;DHT22;32066;49.474;11.106;2022-07-03T03:49:24;17.50;71.50
46356;DHT22;32066;49.474;11.106;2022-07-03T03:51:51;17.40;71.90
46356;DHT22;32066;49.474;11.106;2022-07-03T03:54:18;17.10;73.00
46356;DHT22;32066;49.474;11.106;2022-07-03T03:56:45;17.10;73.20
46356;DHT22;32066;49.474;11.106;2022-07-03T03:59:12;16.90;73.80
46356;DHT22;32066;49.474;11.106;2022-07-03T04:01:39;16.90;73.90
46356;DHT22;32066;49.474;11.106;2022-07-03T04:04:06;16.90;74.00
46356;DHT22;32066;49.474;11.106;2022-07-03T04:06:34;16.90;73.90
46356;DHT22;32066;49.474;11.106;2022-07-03T04:09:01;16.80;74.20
46356;DHT22;32066;49.474;11.106;2022-07-03T04:11:27;16.70;74.40
46356;DHT22;32066;49.474;11.106;2022-07-03T04:13:54;16.80;75.20
46356;DHT22;32066;49.474;11.106;2022-07-03T04:16:21;16.60;74.90
46356;DHT22;32066;49.474;11.106;2022-07-03T04:18:48;16.80;74.60
46356;DHT22;32066;49.474;11.106;2022-07-03T04:21:15;16.80;74.50
46356;DHT22;32066;49.474;11.106;2022-07-03T04:23:43;16.70;75.10
46356;DHT22;32066;49.474;11.106;2022-07-03T04:26:10;16.60;75.20
46356;DHT22;32066;49.474;11.106;2022-07-03T04:28:36;16.70;75.10
46356;DHT22;32066;49.474;11.106;2022-07-03T04:31:03;16.70;75.00
46356;DHT22;32066;49.474;11.106;2022-07-03T04:33:30;16.80;75.00
46356;DHT22;32066;49.474;11.106;2022-07-03T04:35:57;17.10;74.50
46356;DHT22;32066;49.474;11.106;2022-07-03T04:38:24;17.30;73.90
46356;DHT22;32066;49.474;11.106;2022-07-03T04:40:52;17.50;73.40
46356;DHT22;32066;49.474;11.106;2022-07-03T04:43:19;17.60;72.70
46356;DHT22;32066;49.474;11.106;2022-07-03T04:45:45;17.60;73.30
46356;DHT22;32066;49.474;11.106;2022-07-03T04:48:12;17.70;73.30
46356;DHT22;32066;49.474;11.106;2022-07-03T04:50:39;17.80;72.30
46356;DHT22;32066;49.474;11.106;2022-07-03T04:53:06;18.00;72.20
46356;DHT22;32066;49.474;11.106;2022-07-03T04:55:33;18.10;71.50
46356;DHT22;32066;49.474;11.106;2022-07-03T04:58:01;18.20;71.70
46356;DHT22;32066;49.474;11.106;2022-07-03T05:00:28;18.10;71.60
46356;DHT22;32066;49.474;11.106;2022-07-03T05:02:55;18.10;71.50
46356;DHT22;32066;49.474;11.106;2022-07-03T05:05:22;18.00;71.60
46356;DHT22;32066;49.474;11.106;2022-07-03T05:07:49;18.00;71.60
46356;DHT22;32066;49.474;11.106;2022-07-03T05:10:16;18.00;71.80
46356;DHT22;32066;49.474;11.106;2022-07-03T05:12:43;18.20;71.80
46356;DHT22;32066;49.474;11.106;2022-07-03T05:15:11;18.20;71.70
46356;DHT22;32066;49.474;11.106;2022-07-03T05:17:38;18.10;71.80
46356;DHT22;32066;49.474;11.106;2022-07-03T05:20:06;18.30;71.60
46356;DHT22;32066;49.474;11.106;2022-07-03T05:22:51;18.50;71.10
46356;DHT22;32066;49.474;11.106;2022-07-03T05:25:19;18.40;71.30
46356;DHT22;32066;49.474;11.106;2022-07-03T05:27:46;18.50;71.30
46356;DHT22;32066;49.474;11.106;2022-07-03T05:30:14;18.30;71.70
46356;DHT22;32066;49.474;11.106;2022-07-03T05:32:41;18.30;72.20
46356;DHT22;32066;49.474;11.106;2022-07-03T05:35:08;18.30;72.20
46356;DHT22;32066;49.474;11.106;2022-07-03T05:37:35;18.30;72.20
46356;DHT22;32066;49.474;11.106;2022-07-03T05:40:04;18.40;72.30
46356;DHT22;32066;49.474;11.106;2022-07-03T05:42:30;18.50;71.80
46356;DHT22;32066;49.474;11.106;2022-07-03T05:44:57;18.50;71.90
46356;DHT22;32066;49.474;11.106;2022-07-03T05:47:25;18.60;72.20
46356;DHT22;32066;49.474;11.106;2022-07-03T05:49:52;18.70;72.00
46356;DHT22;32066;49.474;11.106;2022-07-03T05:52:19;18.80;71.80
46356;DHT22;32066;49.474;11.106;2022-07-03T05:54:46;18.90;71.70
46356;DHT22;32066;49.474;11.106;2022-07-03T05:57:13;19.20;72.00
46356;DHT22;32066;49.474;11.106;2022-07-03T05:59:40;19.30;70.50
46356;DHT22;32066;49.474;11.106;2022-07-03T06:02:07;19.40;70.80
46356;DHT22;32066;49.474;11.106;2022-07-03T06:04:35;19.50;70.50
46356;DHT22;32066;49.474;11.106;2022-07-03T06:07:02;19.70;69.90
46356;DHT22;32066;49.474;11.106;2022-07-03T06:09:29;19.70;69.90
46356;DHT22;32066;49.474;11.106;2022-07-03T06:11:56;19.70;69.90
46356;DHT22;32066;49.474;11.106;2022-07-03T06:14:23;19.70;69.70
46356;DHT22;32066;49.474;11.106;2022-07-03T06:16:50;19.90;69.10
46356;DHT22;32066;49.474;11.106;2022-07-03T06:19:17;19.90;68.70
46356;DHT22;32066;49.474;11.106;2022-07-03T06:21:45;19.90;68.50
46356;DHT22;32066;49.474;11.106;2022-07-03T06:24:12;20.20;68.40
46356;DHT22;32066;49.474;11.106;2022-07-03T06:26:38;20.20;67.70
46356;DHT22;32066;49.474;11.106;2022-07-03T06:29:05;20.40;66.80
46356;DHT22;32066;49.474;11.106;2022-07-03T06:31:32;20.60;66.70
46356;DHT22;32066;49.474;11.106;2022-07-03T06:33:59;20.80;65.10
46356;DHT22;32066;49.474;11.106;2022-07-03T06:36:26;20.60;65.80
46356;DHT22;32066;49.474;11.106;2022-07-03T06:38:54;20.70;66.10
46356;DHT22;32066;49.474;11.106;2022-07-03T06:41:21;20.80;65.50
46356;DHT22;32066;49.474;11.106;2022-07-03T06:43:48;20.70;65.70
46356;DHT22;32066;49.474;11.106;2022-07-03T06:46:15;20.80;65.00
46356;DHT22;32066;49.474;11.106;2022-07-03T06:48:42;21.00;64.50
46356;DHT22;32066;49.474;11.106;2022-07-03T06:51:09;21.00;64.10
46356;DHT22;32066;49.474;11.106;2022-07-03T06:53:36;21.10;64.00
46356;DHT22;32066;49.474;11.106;2022-07-03T06:56:04;21.30;63.20
46356;DHT22;32066;49.474;11.106;2022-07-03T06:58:31;21.40;62.30
46356;DHT22;32066;49.474;11.106;2022-07-03T07:00:58;21.40;62.00
46356;DHT22;32066;49.474;11.106;2022-07-03T07:03:25;21.40;62.90
46356;DHT22;32066;49.474;11.106;2022-07-03T07:05:52;21.60;62.00
46356;DHT22;32066;49.474;11.106;2022-07-03T07:08:19;21.50;61.90
46356;DHT22;32066;49.474;11.106;2022-07-03T07:10:46;21.70;62.20
46356;DHT22;32066;49.474;11.106;2022-07-03T07:13:14;21.70;61.60
46356;DHT22;32066;49.474;11.106;2022-07-03T07:15:41;21.70;60.70
46356;DHT22;32066;49.474;11.106;2022-07-03T07:18:07;21.70;60.10
46356;DHT22;32066;49.474;11.106;2022-07-03T07:20:34;21.90;59.60
46356;DHT22;32066;49.474;11.106;2022-07-03T07:23:01;22.00;59.70
46356;DHT22;32066;49.474;11.106;2022-07-03T07:25:28;22.10;59.80
46356;DHT22;32066;49.474;11.106;2022-07-03T07:27:55;22.00;60.40
46356;DHT22;32066;49.474;11.106;2022-07-03T07:30:23;22.10;59.80
46356;DHT22;32066;49.474;11.106;2022-07-03T07:32:50;22.10;59.90
46356;DHT22;32066;49.474;11.106;2022-07-03T07:35:17;22.30;59.00
46356;DHT22;32066;49.474;11.106;2022-07-03T07:37:44;22.30;59.30
46356;DHT22;32066;49.474;11.106;2022-07-03T07:40:11;22.50;59.10
46356;DHT22;32066;49.474;11.106;2022-07-03T07:42:38;22.60;58.80
46356;DHT22;32066;49.474;11.106;2022-07-03T07:45:07;22.80;58.30
46356;DHT22;32066;49.474;11.106;2022-07-03T07:47:35;22.80;57.70
46356;DHT22;32066;49.474;11.106;2022-07-03T07:50:03;23.00;57.60
46356;DHT22;32066;49.474;11.106;2022-07-03T07:52:30;23.10;56.90
46356;DHT22;32066;49.474;11.106;2022-07-03T07:54:57;23.10;56.70
46356;DHT22;32066;49.474;11.106;2022-07-03T07:57:24;23.10;56.60
46356;DHT22;32066;49.474;11.106;2022-07-03T07:59:52;23.20;56.70
46356;DHT22;32066;49.474;11.106;2022-07-03T08:02:19;23.30;57.30
46356;DHT22;32066;49.474;11.106;2022-07-03T08:05:05;23.40;56.60
46356;DHT22;32066;49.474;11.106;2022-07-03T08:07:50;23.40;56.20
46356;DHT22;32066;49.474;11.106;2022-07-03T08:10:17;23.40;55.90
46356;DHT22;32066;49.474;11.106;2022-07-03T08:12:44;23.50;55.40
46356;DHT22;32066;49.474;11.106;2022-07-03T08:15:11;23.60;55.50
46356;DHT22;32066;49.474;11.106;2022-07-03T08:17:37;23.60;54.90
46356;DHT22;32066;49.474;11.106;2022-07-03T08:20:07;23.80;54.70
46356;DHT22;32066;49.474;11.106;2022-07-03T08:22:34;23.90;54.00
46356;DHT22;32066;49.474;11.106;2022-07-03T08:25:01;23.90;54.40
46356;DHT22;32066;49.474;11.106;2022-07-03T08:27:28;24.10;54.10
46356;DHT22;32066;49.474;11.106;2022-07-03T08:29:55;24.20;53.00
46356;DHT22;32066;49.474;11.106;2022-07-03T08:32:21;24.30;53.00
46356;DHT22;32066;49.474;11.106;2022-07-03T08:34:48;24.20;52.30
46356;DHT22;32066;49.474;11.106;2022-07-03T08:37:17;24.30;52.00
46356;DHT22;32066;49.474;11.106;2022-07-03T08:39:43;24.30;51.70
46356;DHT22;32066;49.474;11.106;2022-07-03T08:42:11;24.40;51.30
46356;DHT22;32066;49.474;11.106;2022-07-03T08:44:38;24.20;52.00
46356;DHT22;32066;49.474;11.106;2022-07-03T08:47:07;24.20;51.90
46356;DHT22;32066;49.474;11.106;2022-07-03T08:49:34;24.40;52.10
46356;DHT22;32066;49.474;11.106;2022-07-03T08:52:02;24.50;51.30
46356;DHT22;32066;49.474;11.106;2022-07-03T08:54:34;24.60;51.00
46356;DHT22;32066;49.474;11.106;2022-07-03T08:57:01;24.80;51.80
46356;DHT22;32066;49.474;11.106;2022-07-03T08:59:33;24.90;51.20
46356;DHT22;32066;49.474;11.106;2022-07-03T09:02:02;25.00;51.00
46356;DHT22;32066;49.474;11.106;2022-07-03T09:04:30;25.10;50.80
46356;DHT22;32066;49.474;11.106;2022-07-03T09:06:57;25.20;49.50
46356;DHT22;32066;49.474;11.106;2022-07-03T09:09:25;25.20;49.60
46356;DHT22;32066;49.474;11.106;2022-07-03T09:11:53;25.20;49.90
46356;DHT22;32066;49.474;11.106;2022-07-03T09:14:20;25.30;50.00
46356;DHT22;32066;49.474;11.106;2022-07-03T09:16:47;25.40;49.70
46356;DHT22;32066;49.474;11.106;2022-07-03T09:19:14;25.40;49.80
46356;DHT22;32066;49.474;11.106;2022-07-03T09:21:42;25.50;49.60
46356;DHT22;32066;49.474;11.106;2022-07-03T09:24:10;25.50;49.60
46356;DHT22;32066;49.474;11.106;2022-07-03T09:26:49;25.50;49.40
46356;DHT22;32066;49.474;11.106;2022-07-03T09:29:18;25.60;49.00
46356;DHT22;32066;49.474;11.106;2022-07-03T09:31:53;25.70;48.40
46356;DHT22;32066;49.474;11.106;2022-07-03T09:34:21;25.60;47.20
46356;DHT22;32066;49.474;11.106;2022-07-03T09:36:50;25.60;47.80
46356;DHT22;32066;49.474;11.106;2022-07-03T09:39:19;25.70;47.10
46356;DHT22;32066;49.474;11.106;2022-07-03T09:41:57;25.70;44.90
46356;DHT22;32066;49.474;11.106;2022-07-03T09:44:34;25.90;45.00
46356;DHT22;32066;49.474;11.106;2022-07-03T09:47:09;25.90;44.10
46356;DHT22;32066;49.474;11.106;2022-07-03T09:49:46;25.90;44.60
46356;DHT22;32066;49.474;11.106;2022-07-03T09:52:36;26.00;44.60
46356;DHT22;32066;49.474;11.106;2022-07-03T09:55:21;26.00;43.80
46356;DHT22;32066;49.474;11.106;2022-07-03T09:57:58;25.90;44.60
46356;DHT22;32066;49.474;11.106;2022-07-03T10:00:30;26.10;43.60
46356;DHT22;32066;49.474;11.106;2022-07-03T10:02:59;26.10;42.20
46356;DHT22;32066;49.474;11.106;2022-07-03T10:05:28;26.00;41.80
46356;DHT22;32066;49.474;11.106;2022-07-03T10:07:56;26.10;42.00
46356;DHT22;32066;49.474;11.106;2022-07-03T10:10:26;26.20;40.70
46356;DHT22;32066;49.474;11.106;2022-07-03T10:12:55;26.40;41.70
46356;DHT22;32066;49.474;11.106;2022-07-03T10:15:23;26.40;42.20
46356;DHT22;32066;49.474;11.106;2022-07-03T10:17:53;26.50;41.40
46356;DHT22;32066;49.474;11.106;2022-07-03T10:20:24;26.60;40.30
46356;DHT22;32066;49.474;11.106;2022-07-03T10:22:53;26.60;40.30
46356;DHT22;32066;49.474;11.106;2022-07-03T10:25:20;26.60;40.30
46356;DHT22;32066;49.474;11.106;2022-07-03T10:27:47;26.60;40.40
46356;DHT22;32066;49.474;11.106;2022-07-03T10:30:15;26.60;40.40
46356;DHT22;32066;49.474;11.106;2022-07-03T10:32:44;26.70;39.20
46356;DHT22;32066;49.474;11.106;2022-07-03T10:35:14;26.80;39.00
46356;DHT22;32066;49.474;11.106;2022-07-03T10:37:55;26.90;38.70
46356;DHT22;32066;49.474;11.106;2022-07-03T10:40:31;26.90;38.60
46356;DHT22;32066;49.474;11.106;2022-07-03T10:43:24;26.90;38.90
46356;DHT22;32066;49.474;11.106;2022-07-03T10:46:14;27.00;39.30
46356;DHT22;32066;49.474;11.106;2022-07-03T10:49:00;26.90;38.70
46356;DHT22;32066;49.474;11.106;2022-07-03T10:51:31;27.00;35.80
46356;DHT22;32066;49.474;11.106;2022-07-03T10:54:14;27.00;34.50
46356;DHT22;32066;49.474;11.106;2022-07-03T10:57:06;27.00;34.10
46356;DHT22;32066;49.474;11.106;2022-07-03T10:59:55;27.10;34.20
46356;DHT22;32066;49.474;11.106;2022-07-03T11:02:23;27.20;35.10
46356;DHT22;32066;49.474;11.106;2022-07-03T11:05:06;27.30;34.00
46356;DHT22;32066;49.474;11.106;2022-07-03T11:07:42;27.30;34.00
46356;DHT22;32066;49.474;11.106;2022-07-03T11:10:29;27.20;33.50
46356;DHT22;32066;49.474;11.106;2022-07-03T11:12:57;27.10;33.70
46356;DHT22;32066;49.474;11.106;2022-07-03T11:15:28;27.20;34.40
46356;DHT22;32066;49.474;11.106;2022-07-03T11:18:26;27.30;33.70
46356;DHT22;32066;49.474;11.106;2022-07-03T11:27:14;27.60;32.90
46356;DHT22;32066;49.474;11.106;2022-07-03T11:29:49;27.80;33.30
46356;DHT22;32066;49.474;11.106;2022-07-03T11:32:48;27.70;33.40
46356;DHT22;32066;49.474;11.106;2022-07-03T11:35:48;27.70;33.10
46356;DHT22;32066;49.474;11.106;2022-07-03T11:38:19;27.70;33.30
46356;DHT22;32066;49.474;11.106;2022-07-03T11:40:48;27.80;33.90
46356;DHT22;32066;49.474;11.106;2022-07-03T11:43:16;27.70;33.30
46356;DHT22;32066;49.474;11.106;2022-07-03T11:45:43;27.70;34.10
46356;DHT22;32066;49.474;11.106;2022-07-03T11:48:13;27.80;33.70
46356;DHT22;32066;49.474;11.106;2022-07-03T11:50:41;27.90;33.80
46356;DHT22;32066;49.474;11.106;2022-07-03T11:53:18;28.20;34.00
46356;DHT22;32066;49.474;11.106;2022-07-03T11:55:47;28.40;33.60
46356;DHT22;32066;49.474;11.106;2022-07-03T11:58:14;28.40;34.10
46356;DHT22;32066;49.474;11.106;2022-07-03T12:00:42;28.50;33.60
46356;DHT22;32066;49.474;11.106;2022-07-03T12:03:14;28.50;33.50
46356;DHT22;32066;49.474;11.106;2022-07-03T12:05:50;28.60;33.80
46356;DHT22;32066;49.474;11.106;2022-07-03T12:08:22;28.60;33.60
46356;DHT22;32066;49.474;11.106;2022-07-03T12:10:49;28.80;33.20
46356;DHT22;32066;49.474;11.106;2022-07-03T12:13:19;28.80;33.40
46356;DHT22;32066;49.474;11.106;2022-07-03T12:15:48;28.70;32.60
46356;DHT22;32066;49.474;11.106;2022-07-03T12:18:15;28.50;32.80
46356;DHT22;32066;49.474;11.106;2022-07-03T12:20:42;28.40;33.50
46356;DHT22;32066;49.474;11.106;2022-07-03T12:23:09;28.50;33.70
46356;DHT22;32066;49.474;11.106;2022-07-03T12:25:38;28.70;33.40
46356;DHT22;32066;49.474;11.106;2022-07-03T12:28:07;28.80;33.30
46356;DHT22;32066;49.474;11.106;2022-07-03T12:30:36;28.80;33.00
46356;DHT22;32066;49.474;11.106;2022-07-03T12:33:06;28.60;33.10
46356;DHT22;32066;49.474;11.106;2022-07-03T12:35:33;28.70;32.90
46356;DHT22;32066;49.474;11.106;2022-07-03T12:38:00;28.80;32.40
46356;DHT22;32066;49.474;11.106;2022-07-03T12:40:27;28.90;32.10
46356;DHT22;32066;49.474;11.106;2022-07-03T12:42:55;29.10;31.80
46356;DHT22;32066;49.474;11.106;2022-07-03T12:45:27;29.20;31.20
46356;DHT22;32066;49.474;11.106;2022-07-03T12:47:58;29.20;31.30
46356;DHT22;32066;49.474;11.106;2022-07-03T12:50:43;29.30;31.20
46356;DHT22;32066;49.474;11.106;2022-07-03T12:53:10;29.30;31.90
46356;DHT22;32066;49.474;11.106;2022-07-03T12:55:44;29.20;30.70
46356;DHT22;32066;49.474;11.106;2022-07-03T12:58:13;29.20;31.30
46356;DHT22;32066;49.474;11.106;2022-07-03T13:00:57;29.20;31.70
46356;DHT22;32066;49.474;11.106;2022-07-03T13:03:28;29.40;31.60
46356;DHT22;32066;49.474;11.106;2022-07-03T13:05:57;29.50;31.90
46356;DHT22;32066;49.474;11.106;2022-07-03T13:08:24;29.50;31.60
46356;DHT22;32066;49.474;11.106;2022-07-03T13:10:54;29.20;32.00
46356;DHT22;32066;49.474;11.106;2022-07-03T13:13:21;29.20;31.60
46356;DHT22;32066;49.474;11.106;2022-07-03T13:15:48;29.20;32.60
46356;DHT22;32066;49.474;11.106;2022-07-03T13:18:15;29.50;31.50
46356;DHT22;32066;49.474;11.106;2022-07-03T13:20:42;29.70;30.70
46356;DHT22;32066;49.474;11.106;2022-07-03T13:23:10;29.90;31.30
46356;DHT22;32066;49.474;11.106;2022-07-03T13:25:38;30.00;30.90
46356;DHT22;32066;49.474;11.106;2022-07-03T13:28:09;30.00;31.20
46356;DHT22;32066;49.474;11.106;2022-07-03T13:30:36;30.00;31.30
46356;DHT22;32066;49.474;11.106;2022-07-03T13:33:04;30.20;31.10
46356;DHT22;32066;49.474;11.106;2022-07-03T13:35:31;30.20;30.60
46356;DHT22;32066;49.474;11.106;2022-07-03T13:37:58;29.90;30.40
46356;DHT22;32066;49.474;11.106;2022-07-03T13:40:26;29.80;30.30
46356;DHT22;32066;49.474;11.106;2022-07-03T13:42:54;29.70;30.90
46356;DHT22;32066;49.474;11.106;2022-07-03T13:45:21;29.80;31.30
46356;DHT22;32066;49.474;11.106;2022-07-03T13:47:47;30.00;31.40
46356;DHT22;32066;49.474;11.106;2022-07-03T13:50:14;30.00;31.40
46356;DHT22;32066;49.474;11.106;2022-07-03T13:52:41;30.20;31.70
46356;DHT22;32066;49.474;11.106;2022-07-03T13:55:08;30.20;31.50
46356;DHT22;32066;49.474;11.106;2022-07-03T13:57:37;30.50;31.70
46356;DHT22;32066;49.474;11.106;2022-07-03T14:00:04;30.60;31.30
46356;DHT22;32066;49.474;11.106;2022-07-03T14:02:35;30.40;31.50
46356;DHT22;32066;49.474;11.106;2022-07-03T14:05:02;30.70;31.20
46356;DHT22;32066;49.474;11.106;2022-07-03T14:07:29;30.90;31.30
46356;DHT22;32066;49.474;11.106;2022-07-03T14:09:55;30.90;31.20
46356;DHT22;32066;49.474;11.106;2022-07-03T14:12:22;31.00;31.30
46356;DHT22;32066;49.474;11.106;2022-07-03T14:14:51;31.00;31.20
46356;DHT22;32066;49.474;11.106;2022-07-03T14:17:17;30.80;31.00
46356;DHT22;32066;49.474;11.106;2022-07-03T14:19:45;30.70;31.00
46356;DHT22;32066;49.474;11.106;2022-07-03T14:22:12;30.80;30.90
46356;DHT22;32066;49.474;11.106;2022-07-03T14:24:39;30.70;31.20
46356;DHT22;32066;49.474;11.106;2022-07-03T14:27:05;30.60;31.40
46356;DHT22;32066;49.474;11.106;2022-07-03T14:29:51;30.80;31.10
46356;DHT22;32066;49.474;11.106;2022-07-03T14:32:35;31.10;30.70
46356;DHT22;32066;49.474;11.106;2022-07-03T14:35:03;31.20;30.90
46356;DHT22;32066;49.474;11.106;2022-07-03T14:37:30;31.20;30.30
46356;DHT22;32066;49.474;11.106;2022-07-03T14:39:58;31.10;31.30
46356;DHT22;32066;49.474;11.106;2022-07-03T14:42:25;31.10;31.30
46356;DHT22;32066;49.474;11.106;2022-07-03T14:44:53;31.00;30.80
46356;DHT22;32066;49.474;11.106;2022-07-03T14:47:20;31.10;31.20
46356;DHT22;32066;49.474;11.106;2022-07-03T14:49:46;31.10;30.40
46356;DHT22;32066;49.474;11.106;2022-07-03T14:52:14;30.80;30.90
46356;DHT22;32066;49.474;11.106;2022-07-03T14:54:41;30.50;31.70
46356;DHT22;32066;49.474;11.106;2022-07-03T14:57:23;30.30;31.30
46356;DHT22;32066;49.474;11.106;2022-07-03T14:59:57;30.50;31.90
46356;DHT22;32066;49.474;11.106;2022-07-03T15:02:42;30.50;31.40
46356;DHT22;32066;49.474;11.106;2022-07-03T15:05:11;30.50;31.30
46356;DHT22;32066;49.474;11.106;2022-07-03T15:07:39;30.80;29.40
46356;DHT22;32066;49.474;11.106;2022-07-03T15:10:08;30.90;28.90
46356;DHT22;32066;49.474;11.106;2022-07-03T15:12:40;31.10;29.40
46356;DHT22;32066;49.474;11.106;2022-07-03T15:15:13;31.20;29.10
46356;DHT22;32066;49.474;11.106;2022-07-03T15:17:41;31.30;28.80
46356;DHT22;32066;49.474;11.106;2022-07-03T15:20:12;31.50;27.90
46356;DHT22;32066;49.474;11.106;2022-07-03T15:22:40;31.10;28.00
46356;DHT22;32066;49.474;11.106;2022-07-03T15:25:08;31.10;27.70
46356;DHT22;32066;49.474;11.106;2022-07-03T15:27:36;30.80;27.80
46356;DHT22;32066;49.474;11.106;2022-07-03T15:30:04;30.90;28.60
46356;DHT22;32066;49.474;11.106;2022-07-03T15:32:33;30.50;29.30
46356;DHT22;32066;49.474;11.106;2022-07-03T15:35:00;30.70;29.80
46356;DHT22;32066;49.474;11.106;2022-07-03T15:37:39;30.90;29.60
46356;DHT22;32066;49.474;11.106;2022-07-03T15:40:15;31.20;29.50